• Join FlightAware (Why Join?)
  • Login
  • US Flag 
01:12AM EDT


 

Airport Tracker/Info


-or-


 

Live Flight TrackerFlight Track Log ✈ SWA286 ✈ 10-Apr-2013 ✈ KISP - KBWI

Flight Track Log - Related Links

Times and Time Zones

All times are in EDT time to prevent confusion due to time zone crossing. See the SWA286 flight status page for this flight to view local times or setup timezone preferences in your user account.

Time Position Orientation Groundspeed Altitude Reporting Facility
EDT Latitude Longitude Course Direction KTS MPH feet Rate Location/Type
03:37PM 40.7833 -73.1333 180° South 152 175 1,600  Level New York TRACON
03:38PM 40.7333 -73.1333 180° South 229 264 4,000 1,080 Climbing New York TRACON
03:40PM 40.7528 -72.9689 81° East 279 321 4,500 1,380 Climbing Boston Center
03:41PM 40.7700 -72.8594 78° East 291 335 7,800 1,740 Climbing Boston Center
03:42PM 40.7892 -72.7444 78° East 303 349 8,000 780 Climbing Boston Center
03:43PM 40.7914 -72.6292 89° East 303 349 9,400 1,860 Climbing Boston Center
03:44PM 40.7789 -72.5169 98° East 321 369 11,800 2,940 Climbing Boston Center
03:45PM 40.7208 -72.4347 133° Southeast 316 364 15,400 3,000 Climbing Boston Center
03:46PM 40.6478 -72.4975 213° Southwest 215 247 17,900 2,640 Climbing Boston Center
03:47PM 40.5769 -72.6014 228° Southwest 279 321 20,600 3,180 Climbing Boston Center
03:48PM 40.5058 -72.7075 229° Southwest 340 391 24,200 2,940 Climbing Boston Center
03:49PM 40.4594 -72.8383 245° Southwest 372 428 26,600 1,860 Climbing Boston Center
03:50PM 40.4153 -72.9661 246° West 386 444 28,000 660 Climbing Boston Center
03:51PM 40.3667 -73.0992 244° Southwest 397 457 28,000  Level Boston Center
03:53PM 40.1486 -73.3361 220° Southwest 422 486 28,000 -240 Level Washington Center
03:54PM 40.0542 -73.4258 216° Southwest 422 486 27,300 -900 Descending Washington Center
03:55PM 39.9642 -73.5181 218° Southwest 422 486 26,300 -660 Descending Washington Center
03:56PM 39.8742 -73.6125 219° Southwest 422 486 26,000 -180 Descending Washington Center
03:57PM 39.7819 -73.7042 217° Southwest 427 491 26,000  Level Washington Center
03:58PM 39.6894 -73.7931 216° Southwest 427 491 26,000  Level Washington Center
03:59PM 39.5950 -73.8894 218° Southwest 427 491 26,000  Level Washington Center
04:00PM 39.5047 -73.9778 217° Southwest 427 491 26,000  Level Washington Center
04:01PM 39.4119 -74.0711 218° Southwest 432 497 26,000  Level Washington Center
04:02PM 39.3172 -74.1617 216° Southwest 432 497 26,000  Level Washington Center
04:03PM 39.2267 -74.2519 218° Southwest 432 497 26,000 -600 Level Washington Center
04:04PM 39.1339 -74.3419 217° Southwest 432 497 24,900 -1,920 Descending Washington Center
04:05PM 39.0472 -74.4289 218° Southwest 422 486 22,200 -2,460 Descending Washington Center
04:06PM 38.9606 -74.5131 217° Southwest 408 470 20,000 -1,620 Descending Washington Center
04:07PM 38.9219 -74.6258 246° West 356 410 19,000 -1,140 Descending Washington Center
04:08PM 38.8997 -74.7514 257° West 349 402 17,800 -1,080 Descending Washington Center
04:09PM 38.8778 -74.8692 257° West 354 407 16,900 -960 Descending Washington Center
04:10PM 38.8556 -74.9864 256° West 349 402 15,900 -480 Descending Washington Center
04:11PM 38.8308 -75.0986 254° West 338 389 16,000  Climbing Washington Center
04:12PM 38.8106 -75.2133 257° West 338 389 16,000  Level Washington Center
04:13PM 38.8025 -75.3281 265° West 333 383 16,000 -480 Level Washington Center
04:14PM 38.7964 -75.4425 266° West 333 383 15,100 -960 Descending Washington Center
04:15PM 38.7883 -75.5517 265° West 328 377 14,100 -1,020 Descending Washington Center
04:16PM 38.7819 -75.6689 266° West 328 377 13,100 -1,020 Descending Washington Center
04:17PM 38.7756 -75.7753 266° West 328 377 12,100 -1,020 Descending Washington Center
04:18PM 38.7669 -75.8844 264° West 323 372 11,100 -600 Descending Washington Center
04:19PM 38.7606 -75.9911 266° West 316 364 11,000 -60 Descending Washington Center
04:20PM 38.7603 -76.0814 270° West 293 337 11,000 -780 Level Washington Center
04:21PM 38.7828 -76.1694 288° West 274 315 9,500 -1,500 Descending Washington Center
04:22PM 38.8261 -76.2417 308° West 258 297 8,000 -1,860 Descending Washington Center
04:23PM 38.8819 -76.3197 313° West 263 303 5,800 -1,380 Descending Washington Center
04:24PM 38.9233 -76.3894 307° West 263 303 5,300 -1,080 Descending Washington Center
04:25PM 38.9500 -76.4333 308° West 246 283 4,100 -1,560 Descending Potomac TRACON
04:26PM 38.9833 -76.5000 303° West 253 291 3,000 -900 Descending Potomac TRACON
04:27PM 39.0500 -76.5500 330° Northwest 232 267 2,400 -540 Descending Potomac TRACON
04:28PM 39.0833 -76.6000 311° West 184 212 1,900 -720 Descending Potomac TRACON
04:29PM 39.1167 -76.6333 322° Northwest 156 180 1,100 -840 Descending Potomac TRACON
04:30PM 39.1500 -76.6500 339° North 132 152 300 -780 Descending Potomac TRACON